createdAt,value
2017-10-07T00:00:18.415Z,93.13
2017-10-07T00:02:46.015Z,92.96
2017-10-07T00:05:14.866Z,93.10
2017-10-07T00:07:43.731Z,93.08
2017-10-07T00:10:11.332Z,93.27
2017-10-07T00:12:38.941Z,93.83
2017-10-07T00:15:06.517Z,93.83
2017-10-07T00:17:34.142Z,93.75
2017-10-07T00:20:02.119Z,93.59
2017-10-07T00:22:31.398Z,93.78
2017-10-07T00:24:59.001Z,93.77
2017-10-07T00:27:26.621Z,94.03
2017-10-07T00:29:54.607Z,93.96
2017-10-07T00:32:23.540Z,94.17
2017-10-07T00:34:53.231Z,94.10
2017-10-07T00:37:20.909Z,94.05
2017-10-07T00:39:48.502Z,94.23
2017-10-07T00:42:16.082Z,94.44
2017-10-07T00:44:44.346Z,94.48
2017-10-07T00:47:12.779Z,94.53
2017-10-07T00:49:40.369Z,94.80
2017-10-07T00:52:07.941Z,94.77
2017-10-07T00:54:35.563Z,95.12
2017-10-07T00:57:03.557Z,95.05
2017-10-07T00:59:32.535Z,94.87
2017-10-07T01:02:00.865Z,94.98
2017-10-07T01:04:29.759Z,94.77
2017-10-07T01:06:57.765Z,94.93
2017-10-07T01:09:25.369Z,94.72
2017-10-07T01:11:52.972Z,94.82
2017-10-07T01:14:20.673Z,94.78
2017-10-07T01:16:51.507Z,94.81
2017-10-07T01:19:19.473Z,94.50
2017-10-07T01:21:47.161Z,94.35
2017-10-07T01:24:14.737Z,94.06
2017-10-07T01:26:42.619Z,93.69
2017-10-07T01:29:10.209Z,93.65
2017-10-07T01:31:37.771Z,93.44
2017-10-07T01:34:05.381Z,93.91
2017-10-07T01:36:33.340Z,93.77
2017-10-07T01:39:02.904Z,94.10
2017-10-07T01:41:30.465Z,94.02
2017-10-07T01:43:58.385Z,93.87
2017-10-07T01:46:25.968Z,93.57
2017-10-07T01:48:54.211Z,93.94
2017-10-07T01:51:21.806Z,93.58
2017-10-07T01:53:49.377Z,93.55
2017-10-07T01:56:17.160Z,93.46
2017-10-07T01:58:45.178Z,93.45
2017-10-07T02:01:13.371Z,93.44
2017-10-07T02:03:41.237Z,93.42
2017-10-07T02:06:08.817Z,92.92
2017-10-07T02:08:38.039Z,93.64
2017-10-07T02:11:06.877Z,93.44
2017-10-07T02:13:34.457Z,93.37
2017-10-07T02:16:02.040Z,93.49
2017-10-07T02:18:29.603Z,93.30
2017-10-07T02:20:57.188Z,93.52
2017-10-07T02:23:24.757Z,93.36
2017-10-07T02:25:52.322Z,93.50
2017-10-07T02:28:19.875Z,92.88
2017-10-07T02:30:47.511Z,92.85
2017-10-07T02:33:15.055Z,92.92
2017-10-07T02:35:43.291Z,92.65
2017-10-07T02:40:44.621Z,92.92
2017-10-07T02:43:12.192Z,92.59
2017-10-07T02:45:40.191Z,92.41
2017-10-07T02:48:07.755Z,92.61
2017-10-07T02:50:35.347Z,92.56
2017-10-07T02:53:04.315Z,92.52
2017-10-07T02:55:32.292Z,92.57
2017-10-07T02:57:59.870Z,92.24
2017-10-07T03:00:27.451Z,92.43
2017-10-07T03:02:55.039Z,92.42
2017-10-07T03:05:23.880Z,92.37
2017-10-07T03:07:51.448Z,92.34
2017-10-07T03:10:19.045Z,92.18
2017-10-07T03:12:46.621Z,92.25
2017-10-07T03:15:14.152Z,92.51
2017-10-07T03:17:42.137Z,92.54
2017-10-07T03:20:09.724Z,92.40
2017-10-07T03:22:38.190Z,92.49
2017-10-07T03:25:05.751Z,92.62
2017-10-07T03:27:33.311Z,92.42
2017-10-07T03:30:00.893Z,92.23
2017-10-07T03:32:28.462Z,92.11
2017-10-07T03:34:56.053Z,91.70
2017-10-07T03:37:23.628Z,91.70
2017-10-07T03:39:51.627Z,91.88
2017-10-07T03:42:19.571Z,92.20
2017-10-07T03:44:47.131Z,91.85
2017-10-07T03:47:16.091Z,92.04
2017-10-07T03:49:47.223Z,92.50
2017-10-07T03:52:14.790Z,92.31
2017-10-07T03:54:42.769Z,92.16
2017-10-07T03:57:10.354Z,91.98
2017-10-07T03:59:39.597Z,91.91
2017-10-07T04:02:07.154Z,91.98
2017-10-07T04:04:34.735Z,92.07
2017-10-07T04:07:02.320Z,92.53
2017-10-07T04:09:29.885Z,92.00
2017-10-07T04:11:57.881Z,92.07
2017-10-07T04:14:25.819Z,91.95
2017-10-07T04:16:53.409Z,91.65
2017-10-07T04:19:21.060Z,91.87
2017-10-07T04:21:48.656Z,92.01
2017-10-07T04:24:16.573Z,92.14
2017-10-07T04:26:44.202Z,92.15
2017-10-07T04:29:13.207Z,92.17
2017-10-07T04:31:42.302Z,91.91
2017-10-07T04:34:09.874Z,92.08
2017-10-07T04:36:38.817Z,91.71
2017-10-07T04:39:06.395Z,91.66
2017-10-07T04:41:34.068Z,91.89
2017-10-07T04:44:01.632Z,92.00
2017-10-07T04:46:30.636Z,91.92
2017-10-07T04:48:58.216Z,91.74
2017-10-07T04:51:26.103Z,92.09
2017-10-07T04:53:53.679Z,91.83
2017-10-07T04:56:22.109Z,91.87
2017-10-07T04:58:49.695Z,91.75
2017-10-07T05:01:17.730Z,91.70
2017-10-07T05:03:45.769Z,91.85
2017-10-07T05:06:14.093Z,91.63
2017-10-07T05:08:43.615Z,91.74
2017-10-07T05:11:11.189Z,91.76
2017-10-07T05:13:39.435Z,91.86
2017-10-07T05:16:07.866Z,91.80
2017-10-07T05:18:35.450Z,91.74
2017-10-07T05:21:03.022Z,92.09
2017-10-07T05:23:30.924Z,92.30
2017-10-07T05:25:58.523Z,92.37
2017-10-07T05:28:26.080Z,92.51
2017-10-07T05:30:53.683Z,92.38
2017-10-07T05:33:21.251Z,92.04
2017-10-07T05:35:48.819Z,92.21
2017-10-07T05:38:16.382Z,92.05
2017-10-07T05:40:44.081Z,92.10
2017-10-07T05:43:11.631Z,92.15
2017-10-07T05:45:39.199Z,91.86
2017-10-07T05:48:06.767Z,92.07
2017-10-07T05:50:34.364Z,92.14
2017-10-07T05:53:01.953Z,91.95
2017-10-07T05:55:29.831Z,92.05
2017-10-07T05:57:59.211Z,91.96
2017-10-07T06:00:26.777Z,92.02
2017-10-07T06:02:55.973Z,91.97
2017-10-07T06:05:23.656Z,91.80
2017-10-07T06:07:54.286Z,91.62
2017-10-07T06:10:22.994Z,91.69
2017-10-07T06:12:51.184Z,91.77
2017-10-07T06:15:22.907Z,91.40
2017-10-07T06:17:55.112Z,91.22
2017-10-07T06:20:23.299Z,91.41
2017-10-07T06:22:50.860Z,91.86
2017-10-07T06:25:20.880Z,91.44
2017-10-07T06:27:49.258Z,91.56
2017-10-07T06:30:17.795Z,91.33
2017-10-07T06:32:45.408Z,91.28
2017-10-07T06:35:13.437Z,91.24
2017-10-07T06:37:41.849Z,91.19
2017-10-07T06:40:09.426Z,91.39
2017-10-07T06:42:39.755Z,91.25
2017-10-07T06:45:09.461Z,90.91
2017-10-07T06:47:37.060Z,90.60
2017-10-07T06:50:08.512Z,90.70
2017-10-07T06:52:38.438Z,90.54
2017-10-07T06:55:06.401Z,90.40
2017-10-07T06:57:34.897Z,89.86
2017-10-07T07:00:02.498Z,89.57
2017-10-07T07:02:32.357Z,89.34
2017-10-07T07:04:59.978Z,89.59
2017-10-07T07:07:28.915Z,89.37
2017-10-07T07:09:57.090Z,89.27
2017-10-07T07:12:27.270Z,88.79
2017-10-07T07:14:56.688Z,89.09
2017-10-07T07:17:27.064Z,89.29
2017-10-07T07:19:55.458Z,89.84
2017-10-07T07:22:25.160Z,90.22
2017-10-07T07:24:52.776Z,90.53
2017-10-07T07:27:21.168Z,91.35
2017-10-07T07:29:50.473Z,90.72
2017-10-07T07:32:18.549Z,90.79
2017-10-07T07:34:47.892Z,91.08
2017-10-07T07:37:15.453Z,91.85
2017-10-07T07:39:43.436Z,90.78
2017-10-07T07:42:11.012Z,89.92
2017-10-07T07:44:38.985Z,89.23
2017-10-07T07:47:06.601Z,89.08
2017-10-07T07:49:37.771Z,88.82
2017-10-07T07:52:10.041Z,88.83
2017-10-07T07:54:38.038Z,88.76
2017-10-07T07:57:07.421Z,88.45
2017-10-07T07:59:36.309Z,88.00
2017-10-07T08:02:06.938Z,86.84
2017-10-07T08:04:34.641Z,87.13
2017-10-07T08:07:02.235Z,85.67
2017-10-07T08:09:31.914Z,86.52
2017-10-07T08:11:59.427Z,85.73
2017-10-07T08:14:33.602Z,85.34
2017-10-07T08:17:04.283Z,85.75
2017-10-07T08:19:32.944Z,86.65
2017-10-07T08:22:01.957Z,84.04
2017-10-07T08:24:33.174Z,83.16
2017-10-07T08:27:01.835Z,83.22
2017-10-07T08:29:34.418Z,82.76
2017-10-07T08:32:05.055Z,82.84
2017-10-07T08:34:33.028Z,81.96
2017-10-07T08:37:01.278Z,82.52
2017-10-07T08:39:30.639Z,81.40
2017-10-07T08:41:58.668Z,81.67
2017-10-07T08:44:29.019Z,81.70
2017-10-07T08:46:56.604Z,82.17
2017-10-07T08:49:25.755Z,79.87
2017-10-07T08:51:53.721Z,80.51
2017-10-07T08:54:22.637Z,79.85
2017-10-07T08:56:52.923Z,80.85
2017-10-07T08:59:22.158Z,82.04
2017-10-07T09:01:51.166Z,79.64
2017-10-07T09:04:19.060Z,80.26
2017-10-07T09:06:51.030Z,79.91
2017-10-07T09:09:21.527Z,78.77
2017-10-07T09:11:49.466Z,77.56
2017-10-07T09:14:17.989Z,76.75
2017-10-07T09:16:47.636Z,78.01
2017-10-07T09:19:16.733Z,76.12
2017-10-07T09:21:46.255Z,77.73
2017-10-07T09:24:17.728Z,75.73
2017-10-07T09:26:48.020Z,74.95
2017-10-07T09:29:16.301Z,74.18
2017-10-07T09:31:45.449Z,76.24
2017-10-07T09:34:13.463Z,73.12
2017-10-07T09:36:41.466Z,73.95
2017-10-07T09:39:10.989Z,74.91
2017-10-07T09:41:39.870Z,74.40
2017-10-07T09:44:08.700Z,75.32
2017-10-07T09:46:36.484Z,74.25
2017-10-07T09:49:05.877Z,73.43
2017-10-07T09:51:34.664Z,72.40
2017-10-07T09:54:03.984Z,73.03
2017-10-07T09:56:35.162Z,75.08
2017-10-07T10:01:52.708Z,72.30
2017-10-07T10:04:21.243Z,72.71
2017-10-07T10:06:48.843Z,73.80
2017-10-07T10:09:16.580Z,73.91
2017-10-07T10:11:45.594Z,75.04
2017-10-07T10:14:13.745Z,74.47
2017-10-07T10:16:41.329Z,73.22
2017-10-07T10:19:09.259Z,74.22
2017-10-07T10:21:36.846Z,73.81
2017-10-07T10:24:05.076Z,72.65
2017-10-07T10:26:32.654Z,72.34
2017-10-07T10:29:01.707Z,71.58
2017-10-07T10:31:29.341Z,71.84
2017-10-07T10:33:56.918Z,72.23
2017-10-07T10:36:24.515Z,72.47
2017-10-07T10:38:52.124Z,73.38
2017-10-07T10:41:19.718Z,73.21
2017-10-07T10:43:47.387Z,72.99
2017-10-07T10:46:16.692Z,71.41
2017-10-07T10:48:45.575Z,69.81
2017-10-07T10:51:13.182Z,69.25
2017-10-07T10:53:40.799Z,68.74
2017-10-07T10:56:08.385Z,67.58
2017-10-07T10:58:37.625Z,67.83
2017-10-07T11:01:05.165Z,66.47
2017-10-07T11:03:32.770Z,68.82
2017-10-07T11:06:00.311Z,68.65
2017-10-07T11:08:28.268Z,69.20
2017-10-07T11:10:56.347Z,70.46
2017-10-07T11:13:25.359Z,69.82
2017-10-07T11:15:52.930Z,69.66
2017-10-07T11:18:20.523Z,70.63
2017-10-07T11:20:48.442Z,71.11
2017-10-07T11:23:18.166Z,70.25
2017-10-07T11:25:46.066Z,71.04
2017-10-07T11:28:13.648Z,70.50
2017-10-07T11:30:41.323Z,68.55
2017-10-07T11:33:09.243Z,69.51
2017-10-07T11:35:36.817Z,68.93
2017-10-07T11:38:06.173Z,68.83
2017-10-07T11:40:34.126Z,68.05
2017-10-07T11:43:03.824Z,68.86
2017-10-07T11:45:31.858Z,68.49
2017-10-07T11:47:59.467Z,67.03
2017-10-07T11:50:27.060Z,67.46
2017-10-07T11:52:54.650Z,68.43
2017-10-07T11:55:26.696Z,68.08
2017-10-07T11:57:55.540Z,66.70
2017-10-07T12:00:24.803Z,64.58
2017-10-07T12:02:52.400Z,66.92
2017-10-07T12:05:23.858Z,64.20
2017-10-07T12:07:52.533Z,65.48
2017-10-07T12:10:20.133Z,61.46
2017-10-07T12:12:49.703Z,62.69
2017-10-07T12:15:19.314Z,62.37
2017-10-07T12:17:46.903Z,63.26
2017-10-07T12:20:15.265Z,62.52
2017-10-07T12:22:43.832Z,62.90
2017-10-07T12:25:11.424Z,61.76
2017-10-07T12:30:13.175Z,62.83
2017-10-07T12:32:40.831Z,62.60
2017-10-07T12:35:08.489Z,60.96
2017-10-07T12:37:36.489Z,61.40
2017-10-07T12:40:04.340Z,62.29
2017-10-07T12:42:31.941Z,62.87
2017-10-07T12:44:59.696Z,61.81
2017-10-07T12:47:27.291Z,60.44
2017-10-07T12:49:54.864Z,62.52
2017-10-07T12:52:23.155Z,62.28
2017-10-07T12:54:50.718Z,60.29
2017-10-07T12:57:18.281Z,61.57
2017-10-07T12:59:47.070Z,61.42
2017-10-07T13:02:15.857Z,62.31
2017-10-07T13:04:43.436Z,62.23
2017-10-07T13:07:10.949Z,60.98
2017-10-07T13:09:38.578Z,62.47
2017-10-07T13:12:06.110Z,62.92
2017-10-07T13:14:33.667Z,62.67
2017-10-07T13:17:02.668Z,64.71
2017-10-07T13:19:30.239Z,62.53
2017-10-07T13:21:57.805Z,62.43
2017-10-07T13:24:25.375Z,62.17
2017-10-07T13:26:53.294Z,61.41
2017-10-07T13:29:20.886Z,61.06
2017-10-07T13:31:48.549Z,60.18
2017-10-07T13:34:16.107Z,60.15
2017-10-07T13:36:43.683Z,59.97
2017-10-07T13:39:12.528Z,62.21
2017-10-07T13:41:41.065Z,63.71
2017-10-07T13:44:08.659Z,62.62
2017-10-07T13:46:36.194Z,63.16
2017-10-07T13:49:04.141Z,64.20
2017-10-07T13:51:31.743Z,63.69
2017-10-07T13:53:59.360Z,62.27
2017-10-07T13:56:26.929Z,59.20
2017-10-07T13:58:54.863Z,60.01
2017-10-07T14:01:22.467Z,61.55
2017-10-07T14:03:50.039Z,61.80
2017-10-07T14:06:18.996Z,61.07
2017-10-07T14:08:46.539Z,61.66
2017-10-07T14:11:14.128Z,61.77
2017-10-07T14:13:41.803Z,60.92
2017-10-07T14:16:09.391Z,61.91
2017-10-07T14:18:39.119Z,62.18
2017-10-07T14:21:07.411Z,61.16
2017-10-07T14:23:35.342Z,61.05
2017-10-07T14:26:02.969Z,61.88
2017-10-07T14:28:30.943Z,62.09
2017-10-07T14:30:58.567Z,62.21
2017-10-07T14:33:26.127Z,62.02
2017-10-07T14:35:53.811Z,62.52
2017-10-07T14:38:21.415Z,61.75
2017-10-07T14:40:49.525Z,62.71
2017-10-07T14:43:17.121Z,61.51
2017-10-07T14:45:44.688Z,61.40
2017-10-07T14:48:12.285Z,61.93
2017-10-07T14:50:39.850Z,62.28
2017-10-07T14:53:07.430Z,62.09
2017-10-07T14:55:35.112Z,62.36
2017-10-07T14:58:03.078Z,61.46
2017-10-07T15:00:30.610Z,62.38
2017-10-07T15:02:58.189Z,60.62
2017-10-07T15:05:25.811Z,60.65
2017-10-07T15:07:54.104Z,61.74
2017-10-07T15:10:22.079Z,60.59
2017-10-07T15:12:50.876Z,61.22
2017-10-07T15:15:18.480Z,62.22
2017-10-07T15:17:46.140Z,61.77
2017-10-07T15:20:14.879Z,61.58
2017-10-07T15:22:42.486Z,61.53
2017-10-07T15:25:10.817Z,62.53
2017-10-07T15:27:38.384Z,62.73
2017-10-07T15:30:05.978Z,62.12
2017-10-07T15:32:33.594Z,62.26
2017-10-07T15:35:02.194Z,62.08
2017-10-07T15:37:30.589Z,62.65
2017-10-07T15:39:58.198Z,63.13
2017-10-07T15:42:26.162Z,63.02
2017-10-07T15:44:53.769Z,62.96
2017-10-07T15:47:22.014Z,63.73
2017-10-07T15:49:49.899Z,63.31
2017-10-07T15:52:17.492Z,64.48
2017-10-07T15:54:45.432Z,64.40
2017-10-07T15:57:13.403Z,65.16
2017-10-07T15:59:43.097Z,65.09
2017-10-07T16:02:10.664Z,64.16
2017-10-07T16:04:38.259Z,64.22
2017-10-07T16:07:09.623Z,64.12
2017-10-07T16:09:37.632Z,63.98
2017-10-07T16:12:05.230Z,63.75
2017-10-07T16:14:34.310Z,64.14
2017-10-07T16:17:02.467Z,64.53
2017-10-07T16:19:30.143Z,64.46
2017-10-07T16:21:57.737Z,64.67
2017-10-07T16:24:26.752Z,64.91
2017-10-07T16:26:55.595Z,65.36
2017-10-07T16:29:23.178Z,65.85
2017-10-07T16:31:50.762Z,65.95
2017-10-07T16:34:20.152Z,66.22
2017-10-07T16:36:49.598Z,66.10
2017-10-07T16:39:22.129Z,66.31
2017-10-07T16:41:49.783Z,66.02
2017-10-07T16:44:19.245Z,66.59
2017-10-07T16:46:47.242Z,66.00
2017-10-07T16:49:16.685Z,66.47
2017-10-07T16:51:47.063Z,66.46
2017-10-07T16:54:14.938Z,66.99
2017-10-07T16:56:45.137Z,66.26
2017-10-07T16:59:14.195Z,66.47
2017-10-07T17:01:42.742Z,66.70
2017-10-07T17:04:10.323Z,66.66
2017-10-07T17:06:37.895Z,67.37
2017-10-07T17:09:05.514Z,67.30
2017-10-07T17:11:34.541Z,67.71
2017-10-07T17:14:02.815Z,67.70
2017-10-07T17:16:31.703Z,67.99
2017-10-07T17:19:00.325Z,68.17
2017-10-07T17:21:27.934Z,68.88
2017-10-07T17:23:58.259Z,67.92
2017-10-07T17:26:27.799Z,68.42
2017-10-07T17:28:56.273Z,67.89
2017-10-07T17:31:26.088Z,68.23
2017-10-07T17:33:54.868Z,68.64
2017-10-07T17:36:22.507Z,68.99
2017-10-07T17:38:50.100Z,68.40
2017-10-07T17:41:19.399Z,68.60
2017-10-07T17:43:47.438Z,68.40
2017-10-07T17:46:15.012Z,68.86
2017-10-07T17:48:46.318Z,69.11
2017-10-07T17:51:13.902Z,69.05
2017-10-07T17:53:41.868Z,69.41
2017-10-07T17:56:09.505Z,69.81
2017-10-07T17:58:37.108Z,69.60
2017-10-07T18:01:04.746Z,69.82
2017-10-07T18:03:32.363Z,69.82
2017-10-07T18:06:01.549Z,70.35
2017-10-07T18:08:30.766Z,70.32
2017-10-07T18:10:58.372Z,70.42
2017-10-07T18:13:26.850Z,70.57
2017-10-07T18:15:54.807Z,70.64
2017-10-07T18:18:22.377Z,70.76
2017-10-07T18:20:50.429Z,71.33
2017-10-07T18:23:19.206Z,71.34
2017-10-07T18:25:47.222Z,71.33
2017-10-07T18:28:14.797Z,71.51
2017-10-07T18:30:43.324Z,72.03
2017-10-07T18:33:11.505Z,71.66
2017-10-07T18:35:40.243Z,72.03
2017-10-07T18:38:08.196Z,71.79
2017-10-07T18:40:54.074Z,72.29
2017-10-07T18:43:22.065Z,72.31
2017-10-07T18:45:52.853Z,72.05
2017-10-07T18:48:25.667Z,72.02
2017-10-07T18:50:54.890Z,71.99
2017-10-07T18:53:26.280Z,71.97
2017-10-07T18:55:56.718Z,72.21
2017-10-07T18:58:26.512Z,72.35
2017-10-07T19:01:01.188Z,72.12
2017-10-07T19:03:28.837Z,71.77
2017-10-07T19:05:57.672Z,72.52
2017-10-07T19:08:27.745Z,71.80
2017-10-07T19:10:55.707Z,71.75
2017-10-07T19:13:23.590Z,70.98
2017-10-07T19:15:51.255Z,70.92
2017-10-07T19:18:20.336Z,70.97
2017-10-07T19:20:48.014Z,70.55
2017-10-07T19:23:16.103Z,71.22
2017-10-07T19:25:48.680Z,70.91
2017-10-07T19:28:16.361Z,70.35
2017-10-07T19:30:45.113Z,71.00
2017-10-07T19:33:12.761Z,70.01
2017-10-07T19:35:40.366Z,71.04
2017-10-07T19:38:08.196Z,70.28
2017-10-07T19:40:35.802Z,70.91
2017-10-07T19:43:06.477Z,70.58
2017-10-07T19:45:37.880Z,69.71
2017-10-07T19:48:05.528Z,69.58
2017-10-07T19:50:33.111Z,69.72
2017-10-07T19:53:05.476Z,69.16
2017-10-07T19:55:34.780Z,68.87
2017-10-07T19:58:03.575Z,68.38
2017-10-07T20:00:34.139Z,68.47
2017-10-07T20:03:05.710Z,68.46
2017-10-07T20:05:33.760Z,68.05
2017-10-07T20:08:01.839Z,68.25
2017-10-07T20:10:30.866Z,67.82
2017-10-07T20:12:58.446Z,68.14
2017-10-07T20:15:28.907Z,67.91
2017-10-07T20:17:56.491Z,68.05
2017-10-07T20:20:27.790Z,68.42
2017-10-07T20:22:56.525Z,68.40
2017-10-07T20:25:26.046Z,68.17
2017-10-07T20:27:54.058Z,68.11
2017-10-07T20:30:22.612Z,68.45
2017-10-07T20:32:51.732Z,68.69
2017-10-07T20:35:19.533Z,68.96
2017-10-07T20:37:49.146Z,68.89
2017-10-07T20:40:20.166Z,69.38
2017-10-07T20:42:48.228Z,69.42
2017-10-07T20:45:16.634Z,69.46
2017-10-07T20:47:44.198Z,69.81
2017-10-07T20:50:12.435Z,69.89
2017-10-07T20:52:40.083Z,70.33
2017-10-07T20:55:09.222Z,70.42
2017-10-07T20:57:36.808Z,70.42
2017-10-07T21:00:11.135Z,70.79
2017-10-07T21:02:38.713Z,71.51
2017-10-07T21:05:07.511Z,71.26
2017-10-07T21:07:38.334Z,71.27
2017-10-07T21:10:08.460Z,71.24
2017-10-07T21:12:38.974Z,71.66
2017-10-07T21:15:08.383Z,71.64
2017-10-07T21:17:35.996Z,71.56
2017-10-07T21:20:05.018Z,71.30
2017-10-07T21:22:32.611Z,71.85
2017-10-07T21:25:00.543Z,71.89
2017-10-07T21:27:28.122Z,71.80
2017-10-07T21:29:55.780Z,71.82
2017-10-07T21:32:23.335Z,71.47
2017-10-07T21:34:51.311Z,71.78
2017-10-07T21:37:18.891Z,71.77
2017-10-07T21:39:46.448Z,71.50
2017-10-07T21:42:15.827Z,71.43
2017-10-07T21:44:45.506Z,71.72
2017-10-07T21:47:13.093Z,71.67
2017-10-07T21:49:40.661Z,71.75
2017-10-07T21:52:08.632Z,71.89
2017-10-07T21:54:37.239Z,72.16
2017-10-07T21:57:05.173Z,72.01
2017-10-07T21:59:33.774Z,71.91
2017-10-07T22:02:01.343Z,72.04
2017-10-07T22:04:29.088Z,72.10
2017-10-07T22:06:56.685Z,72.10
2017-10-07T22:09:24.576Z,72.40
2017-10-07T22:11:52.487Z,72.29
2017-10-07T22:14:20.752Z,72.25
2017-10-07T22:16:49.688Z,72.47
2017-10-07T22:19:17.278Z,72.53
2017-10-07T22:21:44.878Z,72.80
2017-10-07T22:24:12.840Z,72.54
2017-10-07T22:26:40.397Z,73.04
2017-10-07T22:29:07.978Z,73.32
2017-10-07T22:31:36.165Z,72.45
2017-10-07T22:34:05.431Z,72.55
2017-10-07T22:36:34.248Z,73.01
2017-10-07T22:39:02.273Z,73.32
2017-10-07T22:41:30.582Z,73.80
2017-10-07T22:43:58.409Z,73.93
2017-10-07T22:46:27.178Z,74.00
2017-10-07T22:48:56.066Z,74.29
2017-10-07T22:51:23.657Z,74.56
2017-10-07T22:53:52.247Z,76.34
2017-10-07T22:56:20.115Z,75.54
2017-10-07T22:58:47.680Z,76.39
2017-10-07T23:01:16.633Z,77.69
2017-10-07T23:03:44.672Z,79.75
2017-10-07T23:06:12.228Z,76.41
2017-10-07T23:08:39.950Z,78.92
2017-10-07T23:11:07.516Z,77.80
2017-10-07T23:13:35.134Z,79.88
2017-10-07T23:16:03.284Z,79.56
2017-10-07T23:18:30.880Z,78.71
2017-10-07T23:20:58.449Z,81.03
2017-10-07T23:23:26.839Z,81.52
2017-10-07T23:25:54.417Z,82.08
2017-10-07T23:28:21.970Z,81.67
2017-10-07T23:30:49.578Z,82.91
2017-10-07T23:33:17.150Z,84.14
2017-10-07T23:35:44.774Z,83.39
2017-10-07T23:38:15.353Z,82.84
2017-10-07T23:40:43.734Z,83.22
2017-10-07T23:43:11.668Z,84.25
2017-10-07T23:45:39.352Z,84.20
2017-10-07T23:48:07.298Z,84.78
2017-10-07T23:50:37.029Z,86.19
2017-10-07T23:53:04.592Z,86.82
2017-10-07T23:55:32.462Z,86.38
2017-10-07T23:58:00.038Z,86.68
